首页
METAR-TAF:

METAR-TAF

机场 :

博兹曼机场

博兹曼, 蒙大拿州, 美国

纬度: 45-47-17N, 经度: 111-09-39W, 海拔: 1364米

当前天气观测

该预报发布于53分钟前的14:56 UTC
静风
温度 2°C
湿度 80%
气压 1004 hPa
能見度: 16.1公里
少量云层高于4900英尺
多云层高于8000英尺
阴天层高于9500英尺

METAR: KBZN 081456Z 00000KT 10SM FEW049 BKN080 OVC095 02/M01 A2966 RMK AO2 SLP059 T00171006 53004

时间: 08:49 (15:49 UTC)

预报

该预报发布于4小时和29分钟前的11:20 UTC
预报有效从08日的 12点(UTC)到 09日的 18点(UTC)
风速5节,风向多变
能見度: 10公里
散云层高于3000英尺
阴天层高于5000英尺
附近有阵雨
短暂存在
从 08日的 16点(UTC)到 08日的 18点(UTC)
能見度: 6.4公里
多云层高于2500英尺
小雪, 雨, 轻雾
从 08日的 1800点(UTC)
风速5节,风向多变
能見度: 8.0公里
散云层高于2000英尺
阴天层高于2500英尺
轻雾
短暂存在
从 08日的 18点(UTC)到 08日的 21点(UTC)
能見度: 3.2公里
多云层高于2000英尺
小雪, 雨, 轻雾
从 08日的 2100点(UTC)
风速7节,风向西北
能見度: 9.7公里
散云层高于1500英尺
阴天层高于6000英尺
小雪
从 09日的 0000点(UTC)
风速5节,风向多变
能見度: 10公里
多云层高于5000英尺
几率 30%
从 09日的 00点(UTC)到 09日的 01点(UTC)
能見度: 6.4公里
阴天层高于5000英尺
小雪

TAF: KBZN 081120Z 0812/0918 VRB05KT P6SM VCSH SCT030 OVC050 TEMPO 0816/0818 4SM -SNRA BR BKN025 FM081800 VRB05KT 5SM BR SCT020 OVC025 TEMPO 0818/0821 2SM -SNRA BR BKN020 FM082100 32007KT 6SM -SN SCT015 OVC060 FM090000 VRB05KT P6SM BKN050 PROB30 0900/0901 4SM -SN OVC050

超过4000个机场的气象观测和天气预报(METAR&TAF报告)。

可查询的气象台以黄色和红色小点在地图上表示。

将鼠标移到小点上方,可查看气象台名称。

然后点击查看天气观测和预报。

如需切换地图:点击带黑十字的绿色按钮放大地图;点击带横线的绿色按钮缩小地图;或者点击绿色箭头查看邻近地区的地图。


METAR-TAF: